Time;durP1;ratioP1;P1;durP2;ratioP2;P2;SDS_P1;SDS_P2;PMS_P1;PMS_P2;Temp;Humidity;BMP_temperature;BMP_pressure;BME280_temperature;BME280_humidity;BME280_pressure;Samples;Min_cycle;Max_cycle;Signal;HPM_P1;HPM_P2
2023/04/08 00:00:55;;;;;;;33.58;18.30;;;;;;;7.42;100.00;102161.56;5025120;28;20057;-80
2023/04/08 00:03:21;;;;;;;29.80;18.23;;;;;;;7.43;100.00;102160.66;5029263;28;20044;-80
2023/04/08 00:05:46;;;;;;;29.92;17.77;;;;;;;7.42;100.00;102161.56;5047383;28;20033;-80
2023/04/08 00:08:12;;;;;;;25.10;18.05;;;;;;;7.43;100.00;102163.25;5046963;28;20491;-80
2023/04/08 00:10:37;;;;;;;32.80;17.90;;;;;;;7.43;100.00;102158.88;5046425;28;20040;-80
2023/04/08 00:13:03;;;;;;;34.92;18.77;;;;;;;7.44;100.00;102171.06;5060280;28;20076;-80
2023/04/08 00:15:28;;;;;;;30.35;18.20;;;;;;;7.47;100.00;102162.22;5026228;28;20084;-80
2023/04/08 00:17:54;;;;;;;30.58;18.40;;;;;;;7.48;100.00;102163.94;5031666;28;20041;-80
2023/04/08 00:20:21;;;;;;;28.75;17.90;;;;;;;7.49;100.00;102160.41;5044899;28;20032;-80
2023/04/08 00:22:47;;;;;;;30.63;18.15;;;;;;;7.45;100.00;102159.66;5064633;28;20079;-80
2023/04/08 00:25:12;;;;;;;29.48;18.52;;;;;;;7.50;100.00;102164.72;5048750;28;20028;-80
2023/04/08 00:27:37;;;;;;;29.85;17.58;;;;;;;7.51;100.00;102161.19;5048545;28;20048;-80
2023/04/08 00:30:03;;;;;;;29.27;18.77;;;;;;;7.50;100.00;102156.88;5045080;28;20029;-80
2023/04/08 00:32:32;;;;;;;30.85;19.52;;;;;;;7.52;100.00;102161.13;5048194;28;20032;-80
2023/04/08 00:34:57;;;;;;;31.75;19.23;;;;;;;7.53;100.00;102165.44;5026911;28;20104;-80
2023/04/08 00:37:23;;;;;;;29.70;19.23;;;;;;;7.54;100.00;102161.91;5048641;28;20112;-80
2023/04/08 00:39:49;;;;;;;32.67;20.70;;;;;;;7.52;100.00;102163.75;5043135;28;20655;-80
2023/04/08 00:42:16;;;;;;;33.58;21.58;;;;;;;7.55;100.00;102163.63;5031957;28;20054;-79
2023/04/08 00:44:41;;;;;;;33.03;22.00;;;;;;;7.54;100.00;102164.53;5028475;28;20025;-80
2023/04/08 00:47:11;;;;;;;33.97;22.42;;;;;;;7.52;100.00;102166.34;5045379;28;20547;-79
2023/04/08 00:49:36;;;;;;;33.95;23.02;;;;;;;7.49;100.00;102163.88;5064062;28;20111;-82
2023/04/08 00:52:05;;;;;;;38.85;23.30;;;;;;;7.50;100.00;102168.19;5025305;28;20423;-82
2023/04/08 00:54:30;;;;;;;37.50;23.25;;;;;;;7.51;100.00;102169.91;5028495;28;20029;-82
2023/04/08 00:57:00;;;;;;;38.75;24.13;;;;;;;7.51;100.00;102159.41;5043984;28;20378;-82
2023/04/08 00:59:26;;;;;;;38.92;25.35;;;;;;;7.49;100.00;102169.09;5021610;28;20025;-82
2023/04/08 01:01:57;;;;;;;38.17;24.33;;;;;;;7.53;100.00;102170.69;5043986;28;20033;-82
2023/04/08 01:04:42;;;;;;;39.88;25.70;;;;;;;7.54;100.00;102169.78;5037192;28;20037;-82
2023/04/08 01:07:07;;;;;;;41.13;25.85;;;;;;;7.56;100.00;102174.94;5035676;28;20113;-82
2023/04/08 01:09:37;;;;;;;43.97;26.98;;;;;;;7.53;100.00;102178.53;5025037;28;20104;-80
2023/04/08 01:12:07;;;;;;;41.10;26.85;;;;;;;7.50;100.00;102176.03;5030324;28;20074;-79
2023/04/08 01:14:37;;;;;;;44.50;26.38;;;;;;;7.55;100.00;102174.09;5032300;28;20026;-81
2023/04/08 01:17:04;;;;;;;46.35;28.60;;;;;;;7.54;100.00;102172.38;5030378;28;20029;-80
2023/04/08 01:19:33;;;;;;;41.33;28.00;;;;;;;7.53;100.00;102169.84;5032620;28;20029;-80
2023/04/08 01:22:36;;;;;;;42.72;28.80;;;;;;;7.58;100.00;102175.72;5046869;28;20389;-80
2023/04/08 01:25:09;;;;;;;46.47;29.58;;;;;;;7.56;100.00;102180.19;5026794;28;20103;-79
2023/04/08 01:27:36;;;;;;;46.38;30.33;;;;;;;7.54;100.00;102182.88;5031277;28;20067;-81
2023/04/08 01:30:07;;;;;;;49.40;29.75;;;;;;;7.55;100.00;102179.31;5042516;28;20144;-81
2023/04/08 01:32:34;;;;;;;54.22;30.65;;;;;;;7.58;100.00;102182.75;5030865;28;20033;-81
2023/04/08 01:35:04;;;;;;;53.45;31.30;;;;;;;7.55;100.00;102179.31;5046734;28;20028;-80
2023/04/08 01:37:31;;;;;;;50.60;31.15;;;;;;;7.54;100.00;102190.72;5048045;28;20138;-80
2023/04/08 01:40:05;;;;;;;49.53;31.67;;;;;;;7.59;100.00;102181.81;5050668;28;20107;-80
2023/04/08 01:42:32;;;;;;;50.08;31.33;;;;;;;7.58;100.00;102183.59;5049567;28;20061;-80
2023/04/08 01:45:00;;;;;;;47.80;30.95;;;;;;;7.59;100.00;102179.19;5041118;28;20021;-80
2023/04/08 01:47:26;;;;;;;53.92;31.75;;;;;;;7.56;100.00;102188.03;5030762;28;20022;-80
2023/04/08 01:49:52;;;;;;;51.53;31.38;;;;;;;7.59;100.00;102187.06;5063374;28;20048;-80
2023/04/08 01:52:19;;;;;;;53.85;32.17;;;;;;;7.60;100.00;102183.53;5048241;28;20017;-79
2023/04/08 01:54:46;;;;;;;52.95;32.53;;;;;;;7.61;100.00;102186.13;5040685;28;20044;-80
2023/04/08 01:57:18;;;;;;;60.10;33.10;;;;;;;7.58;100.00;102188.84;5030492;28;20052;-80
2023/04/08 01:59:50;;;;;;;48.77;32.23;;;;;;;7.59;100.00;102187.91;5029708;28;20037;-80
2023/04/08 02:02:18;;;;;;;54.93;32.33;;;;;;;7.57;100.00;102181.03;5027727;28;20443;-81
2023/04/08 02:04:44;;;;;;;52.05;32.05;;;;;;;7.59;100.00;102184.44;5037078;28;20292;-81
2023/04/08 02:07:10;;;;;;;48.78;31.27;;;;;;;7.60;100.00;102183.53;5043419;28;20029;-82
2023/04/08 02:09:36;;;;;;;56.72;33.85;;;;;;;7.55;100.00;102179.31;5031897;28;20134;-85
2023/04/08 02:12:04;;;;;;;49.08;33.67;;;;;;;7.56;100.00;102185.41;5030961;28;20056;-85
2023/04/08 02:14:30;;;;;;;53.38;33.50;;;;;;;7.58;100.00;102180.13;5062808;28;20481;-84
2023/04/08 02:17:07;;;;;;;54.00;34.22;;;;;;;7.54;100.00;102185.47;5026328;28;20052;-85
2023/04/08 02:19:55;;;;;;;43.08;33.55;;;;;;;7.58;100.00;102188.84;5029965;28;20057;-84
2023/04/08 02:22:48;;;;;;;50.65;32.55;;;;;;;7.57;100.00;102186.28;5034545;28;20025;-85
2023/04/08 02:25:15;;;;;;;48.42;32.40;;;;;;;7.55;100.00;102189.81;5064586;28;20441;-84
2023/04/08 02:27:43;;;;;;;50.25;32.83;;;;;;;7.52;100.00;102189.94;5037091;28;20488;-83
2023/04/08 02:30:12;;;;;;;53.40;34.17;;;;;;;7.51;100.00;102190.84;5031939;28;20026;-83
2023/04/08 02:32:38;;;;;;;51.83;33.33;;;;;;;7.53;100.00;102185.53;5029856;28;20044;-84
2023/04/08 02:35:08;;;;;;;49.05;33.33;;;;;;;7.49;100.00;102195.28;5024627;28;20030;-84
2023/04/08 02:37:36;;;;;;;50.30;33.65;;;;;;;7.51;100.00;102193.47;5036864;28;20024;-84
2023/04/08 02:40:02;;;;;;;49.45;33.13;;;;;;;7.51;100.00;102190.84;5030204;28;20508;-83
2023/04/08 02:42:28;;;;;;;54.97;35.80;;;;;;;7.52;100.00;102194.31;5052668;28;20095;-84
2023/04/08 02:44:53;;;;;;;50.85;34.70;;;;;;;7.51;100.00;102192.63;5050616;28;20025;-84
2023/04/08 02:47:19;;;;;;;49.25;34.63;;;;;;;7.52;100.00;102200.41;5065229;28;20056;-84
2023/04/08 02:49:47;;;;;;;57.92;36.22;;;;;;;7.53;100.00;102207.34;5031487;28;20630;-84
2023/04/08 02:52:13;;;;;;;52.42;34.97;;;;;;;7.51;100.00;102203.94;5044174;28;20032;-84
2023/04/08 02:54:38;;;;;;;54.55;35.63;;;;;;;7.49;100.00;102199.69;5063319;28;20170;-84
2023/04/08 02:57:04;;;;;;;51.08;35.20;;;;;;;7.50;100.00;102207.47;5064174;28;20095;-83
2023/04/08 02:59:29;;;;;;;54.67;35.88;;;;;;;7.49;100.00;102204.91;5049310;28;20028;-83
2023/04/08 03:01:55;;;;;;;57.47;37.25;;;;;;;7.45;100.00;102204.19;5048726;28;20116;-83
2023/04/08 03:04:20;;;;;;;55.00;35.65;;;;;;;7.47;100.00;102210.22;5043365;28;20033;-83
2023/04/08 03:06:46;;;;;;;54.28;35.35;;;;;;;7.45;100.00;102205.94;5028375;28;20108;-83
2023/04/08 03:09:12;;;;;;;58.45;36.30;;;;;;;7.44;100.00;102210.34;5036924;28;20030;-83
2023/04/08 03:11:37;;;;;;;55.45;37.13;;;;;;;7.42;100.00;102209.53;5046003;28;20491;-83
2023/04/08 03:14:03;;;;;;;51.60;35.55;;;;;;;7.44;100.00;102210.34;5065273;28;20067;-83
2023/04/08 03:16:28;;;;;;;55.33;35.30;;;;;;;7.44;100.00;102210.34;5036501;28;20108;-82
2023/04/08 03:18:53;;;;;;;52.83;35.60;;;;;;;7.44;100.00;102212.94;5048998;28;20021;-83
2023/04/08 03:21:19;;;;;;;50.30;35.45;;;;;;;7.46;100.00;102208.50;5041580;28;20402;-83
2023/04/08 03:23:45;;;;;;;52.28;35.80;;;;;;;7.42;100.00;102209.53;5030151;28;20124;-83
2023/04/08 03:26:11;;;;;;;50.40;36.15;;;;;;;7.42;100.00;102206.06;5025179;28;20036;-82
2023/04/08 03:28:36;;;;;;;53.47;36.55;;;;;;;7.41;100.00;102202.59;5035231;28;20417;-82
2023/04/08 03:31:06;;;;;;;56.60;36.55;;;;;;;7.44;100.00;102209.47;5047090;28;20032;-82
2023/04/08 03:33:31;;;;;;;70.65;39.72;;;;;;;7.40;100.00;102211.38;5050102;28;20082;-82
2023/04/08 03:36:00;;;;;;;56.25;38.17;;;;;;;7.41;100.00;102212.22;5049363;28;20029;-82
2023/04/08 03:38:26;;;;;;;56.53;37.25;;;;;;;7.45;100.00;102213.81;5064700;28;20017;-82
2023/04/08 03:40:51;;;;;;;59.85;38.30;;;;;;;7.44;100.00;102218.19;5047882;28;20099;-82
2023/04/08 03:43:20;;;;;;;58.83;37.78;;;;;;;7.44;100.00;102214.72;5032770;28;20119;-82
2023/04/08 03:45:46;;;;;;;53.70;38.05;;;;;;;7.46;100.00;102205.03;5044645;28;20025;-82
2023/04/08 03:48:11;;;;;;;59.70;40.13;;;;;;;7.45;100.00;102208.56;5045356;28;20090;-82
2023/04/08 03:50:37;;;;;;;64.68;40.50;;;;;;;7.44;100.00;102212.94;5045722;28;20033;-82
2023/04/08 03:53:05;;;;;;;60.00;40.45;;;;;;;7.43;100.00;102210.41;5048673;28;20017;-82
2023/04/08 03:55:30;;;;;;;71.72;41.90;;;;;;;7.43;100.00;102211.25;5049397;28;20489;-82
2023/04/08 03:57:56;;;;;;;67.32;42.70;;;;;;;7.47;100.00;102218.06;5028263;28;20028;-82
2023/04/08 04:00:21;;;;;;;76.05;43.67;;;;;;;7.47;100.00;102220.69;5029819;28;20034;-82
2023/04/08 04:02:46;;;;;;;67.38;42.42;;;;;;;7.45;100.00;102219.03;5049303;28;20446;-82
2023/04/08 04:05:12;;;;;;;69.28;42.13;;;;;;;7.45;100.00;102219.91;5026734;28;20029;-82
2023/04/08 04:07:40;;;;;;;75.80;44.65;;;;;;;7.44;100.00;102218.19;5025188;28;20051;-82
2023/04/08 04:10:05;;;;;;;80.15;45.95;;;;;;;7.40;100.00;102211.38;5047780;28;20358;-82
2023/04/08 04:12:31;;;;;;;74.07;44.17;;;;;;;7.41;100.00;102218.31;5043670;28;20028;-82
2023/04/08 04:14:56;;;;;;;88.57;46.17;;;;;;;7.43;100.00;102215.63;5029426;28;20501;-82
2023/04/08 04:17:22;;;;;;;77.63;46.10;;;;;;;7.43;100.00;102221.72;5029234;28;20060;-82
2023/04/08 04:19:47;;;;;;;84.40;45.63;;;;;;;7.43;100.00;102221.72;5047741;28;20048;-82
2023/04/08 04:22:13;;;;;;;83.43;46.33;;;;;;;7.44;100.00;102223.44;5055917;28;20025;-82
2023/04/08 04:24:45;;;;;;;86.00;48.20;;;;;;;7.42;100.00;102225.25;5025638;28;20377;-82
2023/04/08 04:27:11;;;;;;;86.70;48.17;;;;;;;7.42;100.00;102225.25;5032617;28;20032;-82
2023/04/08 04:29:36;;;;;;;86.03;47.92;;;;;;;7.44;100.00;102236.53;5048588;28;20055;-82
2023/04/08 04:32:05;;;;;;;101.03;49.95;;;;;;;7.40;100.00;102234.94;5058500;28;20029;-82
2023/04/08 04:34:31;;;;;;;91.00;49.72;;;;;;;7.42;100.00;102240.97;5028878;28;20022;-82
2023/04/08 04:37:01;;;;;;;97.78;49.80;;;;;;;7.42;100.00;102240.13;5044875;28;20029;-82
2023/04/08 04:39:27;;;;;;;89.95;49.30;;;;;;;7.44;100.00;102244.38;5038808;28;20117;-82
2023/04/08 04:41:52;;;;;;;120.53;52.45;;;;;;;7.42;100.00;102240.97;5032874;28;20041;-82
2023/04/08 04:44:18;;;;;;;110.60;52.40;;;;;;;7.43;100.00;102247.91;5067018;28;20065;-82
2023/04/08 04:46:44;;;;;;;101.20;52.20;;;;;;;7.44;100.00;102254.00;5047569;28;20050;-82
2023/04/08 04:49:11;;;;;;;126.05;54.17;;;;;;;7.42;100.00;102256.69;5036985;28;20487;-80
2023/04/08 04:51:37;;;;;;;112.22;54.28;;;;;;;7.44;100.00;102254.84;5051330;28;20017;-81
2023/04/08 04:54:05;;;;;;;103.93;54.00;;;;;;;7.44;100.00;102254.84;5038035;28;20032;-82
2023/04/08 04:56:30;;;;;;;110.32;54.30;;;;;;;7.46;100.00;102253.03;5039369;28;20107;-82
2023/04/08 04:58:56;;;;;;;118.35;55.17;;;;;;;7.44;100.00;102256.63;5051382;28;20477;-81
2023/04/08 05:01:28;;;;;;;103.50;52.78;;;;;;;7.46;100.00;102260.88;5065828;28;20905;-81
2023/04/08 05:03:56;;;;;;;124.75;53.35;;;;;;;7.47;100.00;102270.44;5060884;28;20021;-81
2023/04/08 05:06:26;;;;;;;123.25;55.47;;;;;;;7.46;100.00;102273.13;5028909;28;20029;-81
2023/04/08 05:08:51;;;;;;;105.93;52.58;;;;;;;7.48;100.00;102269.53;5040809;28;20043;-81
2023/04/08 05:11:20;;;;;;;109.28;53.50;;;;;;;7.46;100.00;102273.97;5031060;28;20108;-81
2023/04/08 05:13:46;;;;;;;110.45;52.58;;;;;;;7.47;100.00;102261.72;5063746;28;20481;-81
2023/04/08 05:16:12;;;;;;;103.15;51.92;;;;;;;7.46;100.00;102279.22;5033758;28;20030;-81
2023/04/08 05:18:38;;;;;;;104.63;49.63;;;;;;;7.46;100.00;102273.13;5033223;28;20029;-81
2023/04/08 05:21:03;;;;;;;95.45;48.67;;;;;;;7.47;100.00;102286.16;5047970;28;20036;-81
2023/04/08 05:23:29;;;;;;;83.28;45.67;;;;;;;7.47;100.00;102291.38;5051383;28;20053;-81
2023/04/08 05:25:55;;;;;;;81.97;44.72;;;;;;;7.49;100.00;102294.81;5049093;28;20448;-81
2023/04/08 05:28:21;;;;;;;74.63;43.78;;;;;;;7.44;100.00;102291.50;5056760;28;20029;-82
2023/04/08 05:30:50;;;;;;;78.75;44.45;;;;;;;7.49;100.00;102296.56;5029806;28;20027;-81
2023/04/08 05:33:15;;;;;;;73.25;43.30;;;;;;;7.46;100.00;102292.31;5029664;28;20022;-82
2023/04/08 05:35:41;;;;;;;75.63;41.30;;;;;;;7.48;100.00;102293.09;5044622;28;20036;-81
2023/04/08 05:38:07;;;;;;;69.93;39.92;;;;;;;7.46;100.00;102294.94;5050999;28;20096;-82
2023/04/08 05:40:35;;;;;;;66.53;40.22;;;;;;;7.48;100.00;102298.34;5042611;28;20082;-82
2023/04/08 05:43:01;;;;;;;63.28;40.42;;;;;;;7.52;100.00;102297.31;5060254;28;20144;-82
2023/04/08 05:45:27;;;;;;;65.13;40.17;;;;;;;7.50;100.00;102295.66;5026028;28;20156;-82
2023/04/08 05:47:52;;;;;;;63.95;40.47;;;;;;;7.50;100.00;102300.91;5013923;28;20026;-82
2023/04/08 05:50:18;;;;;;;67.30;40.33;;;;;;;7.50;100.00;102301.75;5043683;28;20025;-81
2023/04/08 05:52:44;;;;;;;64.32;39.97;;;;;;;7.51;100.00;102303.44;5031625;28;20492;-81
2023/04/08 05:55:10;;;;;;;70.72;41.00;;;;;;;7.53;100.00;102306.88;5050479;28;20112;-82
2023/04/08 05:57:36;;;;;;;61.42;39.03;;;;;;;7.58;100.00;102308.47;5065699;28;20087;-81
2023/04/08 06:00:09;;;;;;;57.03;36.95;;;;;;;7.55;100.00;102320.75;5064968;28;20088;-81
2023/04/08 06:02:35;;;;;;;63.90;38.00;;;;;;;7.57;100.00;102312.00;5043346;28;20051;-81
2023/04/08 06:05:04;;;;;;;60.75;38.47;;;;;;;7.57;100.00;102317.22;5035162;28;20108;-81
2023/04/08 06:07:33;;;;;;;63.60;38.55;;;;;;;7.60;100.00;102317.09;5038621;28;20452;-81
2023/04/08 06:09:58;;;;;;;61.72;37.67;;;;;;;7.61;100.00;102318.84;5050686;28;20021;-81
2023/04/08 06:12:27;;;;;;;60.35;39.33;;;;;;;7.59;100.00;102315.41;5064619;28;20025;-81
2023/04/08 06:14:56;;;;;;;56.00;38.53;;;;;;;7.62;100.00;102317.94;5083089;28;20024;-81
2023/04/08 06:17:24;;;;;;;61.70;37.80;;;;;;;7.62;100.00;102324.03;5064342;28;20029;-81
2023/04/08 06:19:52;;;;;;;59.22;38.05;;;;;;;7.66;100.00;102327.38;5070480;28;20087;-81
2023/04/08 06:22:18;;;;;;;52.47;36.67;;;;;;;7.73;100.00;102323.63;5070803;28;20029;-81
2023/04/08 06:24:43;;;;;;;45.13;31.88;;;;;;;7.65;100.00;102333.53;5052801;28;20033;-81
2023/04/08 06:27:09;;;;;;;50.00;33.15;;;;;;;7.74;100.00;102336.66;5069716;28;20036;-81
2023/04/08 06:29:34;;;;;;;52.05;35.60;;;;;;;7.70;100.00;102331.59;5070325;28;20032;-81
2023/04/08 06:32:04;;;;;;;51.25;33.78;;;;;;;7.76;100.00;102339.22;5049255;28;20056;-81
2023/04/08 06:34:30;;;;;;;36.25;26.02;;;;;;;7.75;100.00;102342.75;5050354;28;20032;-80
2023/04/08 06:36:58;;;;;;;34.80;25.48;;;;;;;7.79;100.00;102354.81;5078877;28;20024;-81
2023/04/08 06:39:24;;;;;;;38.88;30.02;;;;;;;7.89;100.00;102345.69;5073328;28;20522;-81
2023/04/08 06:41:50;;;;;;;44.28;32.50;;;;;;;7.93;100.00;102347.25;5061808;28;20068;-81
2023/04/08 06:44:18;;;;;;;44.95;32.80;;;;;;;8.00;100.00;102359.22;5065084;28;20116;-81
2023/04/08 06:46:43;;;;;;;41.72;33.20;;;;;;;8.02;100.00;102356.56;5050566;28;20103;-80
2023/04/08 06:49:08;;;;;;;38.92;30.35;;;;;;;8.02;100.00;102344.31;5047123;28;20042;-81
2023/04/08 06:51:34;;;;;;;41.15;29.63;;;;;;;8.05;100.00;102351.19;5057964;28;20032;-81
2023/04/08 06:54:30;;;;;;;40.00;30.15;;;;;;;8.17;100.00;102351.56;5050645;28;20473;-80
2023/04/08 06:56:56;;;;;;;42.65;31.67;;;;;;;8.27;100.00;102353.81;5037858;28;20497;-80
2023/04/08 06:59:21;;;;;;;41.38;30.55;;;;;;;8.34;100.00;102357.91;5047115;28;20028;-79
2023/04/08 07:01:46;;;;;;;36.58;29.20;;;;;;;8.31;100.00;102371.13;5048234;28;20043;-79
2023/04/08 07:04:12;;;;;;;31.83;26.83;;;;;;;8.27;100.00;102369.53;5049029;28;20033;-79
2023/04/08 07:06:37;;;;;;;34.58;26.10;;;;;;;8.36;100.00;102372.66;5065622;28;20035;-79
2023/04/08 07:09:06;;;;;;;31.33;25.70;;;;;;;8.29;100.00;102376.44;5064397;28;20024;-79
2023/04/08 07:11:32;;;;;;;29.30;25.25;;;;;;;8.31;100.00;102376.38;5065733;28;20029;-79
2023/04/08 07:14:03;;;;;;;31.80;24.45;;;;;;;8.33;100.00;102385.03;5050307;28;20043;-83
2023/04/08 07:16:32;;;;;;;29.48;24.25;;;;;;;8.42;100.00;102384.72;5045684;28;20028;-83
2023/04/08 07:18:58;;;;;;;28.52;24.17;;;;;;;8.41;100.00;102385.63;5044853;28;20037;-82
2023/04/08 07:21:24;;;;;;;28.83;25.00;;;;;;;8.41;100.00;102388.25;5049431;28;20027;-82
2023/04/08 07:23:50;;;;;;;29.92;24.52;;;;;;;8.34;100.00;102390.22;5049452;28;20497;-82
2023/04/08 07:26:21;;;;;;;28.02;23.42;;;;;;;8.29;100.00;102399.16;5049770;28;20028;-83
2023/04/08 07:28:46;;;;;;;29.05;24.38;;;;;;;8.43;100.00;102402.16;5049871;28;20366;-82
2023/04/08 07:31:15;;;;;;;31.42;24.73;;;;;;;8.55;100.00;102406.03;5049764;28;20055;-82
2023/04/08 07:33:40;;;;;;;30.90;26.58;;;;;;;8.46;100.00;102402.03;5048963;28;20025;-83
2023/04/08 07:36:09;;;;;;;32.30;26.23;;;;;;;8.52;100.00;102404.41;5044659;28;20106;-82
2023/04/08 07:38:35;;;;;;;33.83;26.63;;;;;;;8.63;100.00;102410.06;5050280;28;20048;-79
2023/04/08 07:41:00;;;;;;;30.63;26.35;;;;;;;8.72;100.00;102412.31;5049727;28;20080;-80
2023/04/08 07:43:26;;;;;;;30.63;26.13;;;;;;;8.71;100.00;102413.22;5064760;28;20033;-80
2023/04/08 07:45:52;;;;;;;30.95;25.50;;;;;;;8.77;100.00;102415.59;5050535;28;20039;-80
2023/04/08 07:48:20;;;;;;;28.95;25.00;;;;;;;8.73;100.00;102423.66;5054590;28;20052;-80
2023/04/08 07:50:46;;;;;;;28.10;24.65;;;;;;;8.71;100.00;102409.75;5053109;28;20033;-80
2023/04/08 07:53:12;;;;;;;27.70;24.73;;;;;;;8.69;100.00;102409.81;5045517;28;20031;-80
2023/04/08 07:55:39;;;;;;;27.55;24.60;;;;;;;8.69;100.00;102412.44;5049984;28;20051;-83
2023/04/08 07:58:04;;;;;;;28.60;25.30;;;;;;;8.71;100.00;102407.13;5047380;28;20075;-82
2023/04/08 08:00:32;;;;;;;27.02;24.13;;;;;;;8.86;100.00;102413.53;5050002;28;20299;-82
2023/04/08 08:02:57;;;;;;;27.13;24.27;;;;;;;8.83;100.00;102418.91;5046795;28;20048;-82
2023/04/08 08:05:22;;;;;;;34.97;27.27;;;;;;;8.83;100.00;102419.75;5064370;28;20500;-84
2023/04/08 08:07:49;;;;;;;36.05;29.05;;;;;;;8.84;100.00;102425.84;5069466;28;20120;-84
2023/04/08 08:10:14;;;;;;;26.05;23.25;;;;;;;8.83;100.00;102437.28;5062512;28;20024;-84
2023/04/08 08:12:40;;;;;;;26.88;23.83;;;;;;;8.83;100.00;102429.41;5084931;28;20013;-82
2023/04/08 08:15:06;;;;;;;27.48;24.60;;;;;;;9.01;100.00;102431.25;5086623;28;20016;-81
2023/04/08 08:17:32;;;;;;;27.88;24.95;;;;;;;8.98;100.00;102440.09;5080777;28;20077;-81
2023/04/08 08:20:02;;;;;;;26.90;24.10;;;;;;;8.92;100.00;102437.75;5071890;28;20609;-84
2023/04/08 08:22:31;;;;;;;28.25;25.15;;;;;;;8.90;100.00;102442.19;5060300;28;20033;-84
2023/04/08 08:24:57;;;;;;;27.20;24.30;;;;;;;8.97;100.00;102442.78;5050515;28;20416;-84
2023/04/08 08:27:26;;;;;;;27.40;24.50;;;;;;;8.92;100.00;102450.00;5049414;28;20024;-85
2023/04/08 08:29:51;;;;;;;27.30;24.30;;;;;;;8.99;100.00;102439.19;5066733;28;20052;-82
2023/04/08 08:32:17;;;;;;;26.90;24.00;;;;;;;8.99;100.00;102451.47;5061368;28;20025;-83
2023/04/08 08:34:43;;;;;;;26.77;23.90;;;;;;;9.08;100.00;102446.66;5058198;28;20032;-83
2023/04/08 08:37:11;;;;;;;27.85;24.77;;;;;;;9.23;100.00;102450.44;5051278;28;20025;-88
2023/04/08 08:39:36;;;;;;;29.27;25.90;;;;;;;9.26;100.00;102450.31;5050616;28;20055;-82
2023/04/08 08:42:05;;;;;;;29.08;25.92;;;;;;;9.18;100.00;102460.25;5047087;28;20094;-79
2023/04/08 08:44:30;;;;;;;27.98;24.77;;;;;;;9.34;100.00;102453.44;5045090;28;20120;-79
2023/04/08 08:46:56;;;;;;;30.73;24.48;;;;;;;9.41;100.00;102457.53;5047308;28;20663;-81
2023/04/08 08:49:22;;;;;;;26.40;23.55;;;;;;;9.40;100.00;102458.44;5065701;28;20036;-81
2023/04/08 08:51:49;;;;;;;26.67;23.80;;;;;;;9.32;100.00;102462.31;5049303;28;20472;-81
2023/04/08 08:54:14;;;;;;;27.15;24.25;;;;;;;9.36;100.00;102461.25;5054022;28;20044;-81
2023/04/08 08:56:42;;;;;;;26.55;23.70;;;;;;;9.60;100.00;102464.59;5052769;28;20032;-81
2023/04/08 08:59:07;;;;;;;28.98;24.75;;;;;;;9.59;100.00;102465.50;5045223;28;20028;-81
2023/04/08 09:01:36;;;;;;;27.58;24.58;;;;;;;9.70;100.00;102465.91;5048416;28;20100;-80
2023/04/08 09:04:10;;;;;;;28.65;25.55;;;;;;;9.89;100.00;102466.78;5050739;28;20036;-81
2023/04/08 09:06:37;;;;;;;29.85;24.85;;;;;;;9.88;100.00;102474.75;5053183;28;20028;-81
2023/04/08 09:09:05;;;;;;;29.27;25.30;;;;;;;9.93;100.00;102476.22;5067116;28;20108;-80
2023/04/08 09:11:31;;;;;;;27.92;24.92;;;;;;;9.85;99.64;102470.47;5061676;28;20028;-80
2023/04/08 09:13:57;;;;;;;28.88;25.27;;;;;;;9.98;100.00;102484.75;5071741;28;20115;-80
2023/04/08 09:16:22;;;;;;;31.05;26.95;;;;;;;10.00;100.00;102480.28;5055001;28;20111;-81
2023/04/08 09:18:48;;;;;;;34.42;28.90;;;;;;;9.80;100.00;102482.97;5051562;28;20021;-80
2023/04/08 09:21:16;;;;;;;33.28;28.08;;;;;;;9.76;100.00;102485.81;5073886;28;20442;-80
2023/04/08 09:23:43;;;;;;;32.05;28.27;;;;;;;9.64;100.00;102488.06;5071165;28;20374;-79
2023/04/08 09:26:14;;;;;;;34.13;28.70;;;;;;;9.65;100.00;102488.91;5071058;28;20024;-83
2023/04/08 09:28:41;;;;;;;32.33;27.95;;;;;;;9.66;100.00;102493.25;5047575;28;20033;-82
2023/04/08 09:31:26;;;;;;;30.90;27.63;;;;;;;9.75;100.00;102500.72;5059884;28;20041;-82
2023/04/08 09:33:54;;;;;;;29.70;26.50;;;;;;;9.70;100.00;102497.44;5063088;28;20036;-79
2023/04/08 09:36:20;;;;;;;30.17;26.83;;;;;;;9.68;100.00;102499.28;5030755;28;20036;-78
2023/04/08 09:38:46;;;;;;;33.33;28.65;;;;;;;9.76;100.00;102497.19;5045219;28;20029;-78
2023/04/08 09:41:16;;;;;;;30.80;27.45;;;;;;;9.81;100.00;102496.97;5079432;28;20048;-78
2023/04/08 09:43:50;;;;;;;33.45;28.95;;;;;;;9.77;100.00;102498.03;5069749;28;20028;-80
2023/04/08 09:46:18;;;;;;;33.40;29.80;;;;;;;9.59;100.00;102497.03;5071023;28;20480;-81
2023/04/08 09:48:57;;;;;;;32.03;28.65;;;;;;;9.55;100.00;102498.94;5067188;28;20031;-83
2023/04/08 09:51:24;;;;;;;29.30;26.33;;;;;;;9.50;100.00;102492.19;5043630;28;20036;-81
2023/04/08 09:53:58;;;;;;;31.27;27.75;;;;;;;9.49;100.00;102506.25;5070688;28;20396;-82
2023/04/08 09:56:41;;;;;;;30.80;27.60;;;;;;;9.62;100.00;102504.81;5044579;28;20102;-81
2023/04/08 09:59:16;;;;;;;29.05;26.05;;;;;;;9.78;100.00;102503.22;5049713;28;20054;-81
2023/04/08 10:02:04;;;;;;;29.92;26.83;;;;;;;9.79;100.00;102504.91;5070486;28;20041;-81
2023/04/08 10:04:34;;;;;;;28.27;25.48;;;;;;;9.67;100.00;102513.34;5041068;28;20056;-81
2023/04/08 10:07:12;;;;;;;28.98;25.85;;;;;;;9.61;100.00;102503.13;5044862;28;20036;-81
2023/04/08 10:09:42;;;;;;;28.02;25.10;;;;;;;9.69;100.00;102501.00;5051716;28;20025;-81
2023/04/08 10:12:08;;;;;;;30.40;27.40;;;;;;;9.73;100.00;102510.44;5063524;28;20079;-81
2023/04/08 10:14:35;;;;;;;29.02;26.05;;;;;;;9.82;100.00;102507.41;5061213;28;20032;-81
2023/04/08 10:17:24;;;;;;;27.25;24.45;;;;;;;10.00;100.00;102509.22;5057961;28;20021;-82
2023/04/08 10:19:49;;;;;;;28.90;25.98;;;;;;;10.15;100.00;102507.69;5050742;28;20025;-81
2023/04/08 10:22:27;;;;;;;26.98;24.38;;;;;;;10.23;99.22;102512.63;5050095;28;20077;-81
2023/04/08 10:25:14;;;;;;;26.85;24.02;;;;;;;10.32;98.93;102513.03;5053184;28;20052;-81
2023/04/08 10:27:48;;;;;;;26.13;23.58;;;;;;;10.32;96.75;102506.94;5059138;28;20539;-81
2023/04/08 10:30:32;;;;;;;26.95;24.35;;;;;;;10.50;98.17;102510.50;5070928;28;20052;-81
2023/04/08 10:33:02;;;;;;;28.45;25.45;;;;;;;10.45;97.49;102508.09;5067007;28;20056;-81
2023/04/08 10:35:41;;;;;;;27.50;24.77;;;;;;;10.47;96.62;102503.59;5050869;28;20037;-82
2023/04/08 10:38:11;;;;;;;27.38;24.67;;;;;;;10.53;96.36;102500.69;5056368;28;20048;-81
2023/04/08 10:40:41;;;;;;;27.35;24.75;;;;;;;10.90;94.02;102496.28;5069454;28;20032;-81
2023/04/08 10:43:15;;;;;;;26.85;24.15;;;;;;;11.41;93.46;102499.88;5060714;28;20040;-81
2023/04/08 10:45:45;;;;;;;26.23;23.70;;;;;;;11.47;90.66;102496.94;5034311;28;20110;-81
2023/04/08 10:48:23;;;;;;;25.15;22.65;;;;;;;11.52;91.18;102498.41;5033122;28;20017;-81
2023/04/08 10:50:58;;;;;;;24.77;22.38;;;;;;;11.47;92.10;102499.56;5050266;28;20477;-81
2023/04/08 10:53:38;;;;;;;26.08;23.58;;;;;;;11.37;90.19;102495.69;5049335;28;20017;-81
2023/04/08 10:56:17;;;;;;;26.40;23.90;;;;;;;11.76;89.40;102491.00;5049706;28;20021;-80
2023/04/08 10:58:48;;;;;;;24.92;22.52;;;;;;;11.98;86.58;102492.53;5048567;28;20037;-80
2023/04/08 11:01:13;;;;;;;25.08;22.63;;;;;;;12.07;86.85;102490.25;5049207;28;20212;-79
2023/04/08 11:03:41;;;;;;;24.58;22.23;;;;;;;12.19;84.71;102479.03;5042549;28;20113;-80
2023/04/08 11:06:07;;;;;;;24.35;22.05;;;;;;;12.40;86.67;102487.53;5060242;28;20022;-81
2023/04/08 11:08:35;;;;;;;25.67;23.23;;;;;;;12.38;85.60;102484.13;5076558;28;20044;-83
2023/04/08 11:11:08;;;;;;;24.33;22.05;;;;;;;12.45;87.61;102485.53;5049981;28;20105;-81
2023/04/08 11:13:45;;;;;;;25.92;23.52;;;;;;;12.20;86.02;102480.75;5036235;28;20025;-82